createdAt,value
2022-11-26T00:00:58.382Z,47.00
2022-11-26T00:03:26.530Z,44.58
2022-11-26T00:05:58.046Z,44.30
2022-11-26T00:08:30.823Z,43.88
2022-11-26T00:10:59.130Z,44.50
2022-11-26T00:13:31.609Z,42.60
2022-11-26T00:15:59.755Z,42.60
2022-11-26T00:18:27.713Z,45.67
2022-11-26T00:21:00.638Z,45.28
2022-11-26T00:23:29.805Z,42.20
2022-11-26T00:25:59.655Z,43.90
2022-11-26T00:28:31.217Z,43.55
2022-11-26T00:31:01.510Z,45.70
2022-11-26T00:33:30.514Z,45.03
2022-11-26T00:36:01.742Z,47.72
2022-11-26T00:38:31.681Z,45.78
2022-11-26T00:41:00.495Z,46.85
2022-11-26T00:43:29.967Z,45.13
2022-11-26T00:45:58.020Z,46.23
2022-11-26T00:48:26.125Z,43.88
2022-11-26T00:50:54.473Z,45.60
2022-11-26T00:53:26.013Z,43.40
2022-11-26T00:55:54.098Z,45.97
2022-11-26T00:58:27.134Z,43.60
2022-11-26T01:00:59.049Z,45.85
2022-11-26T01:03:27.649Z,47.28
2022-11-26T01:05:58.236Z,44.90
2022-11-26T01:08:32.315Z,44.90
2022-11-26T01:11:01.256Z,42.87
2022-11-26T01:13:30.411Z,42.03
2022-11-26T01:16:01.763Z,42.30
2022-11-26T01:18:33.226Z,41.10
2022-11-26T01:21:01.443Z,43.83
2022-11-26T01:23:29.436Z,42.80
2022-11-26T01:25:57.500Z,43.75
2022-11-26T01:28:25.520Z,43.95
2022-11-26T01:30:53.619Z,42.15
2022-11-26T01:33:22.947Z,42.07
2022-11-26T01:35:50.987Z,44.25
2022-11-26T01:38:19.125Z,42.87
2022-11-26T01:40:59.943Z,41.23
2022-11-26T01:43:30.835Z,44.17
2022-11-26T01:45:58.909Z,44.25
2022-11-26T01:48:31.701Z,46.65
2022-11-26T01:51:02.903Z,45.22
2022-11-26T01:53:44.889Z,48.20
2022-11-26T01:56:32.288Z,47.13
2022-11-26T01:59:07.100Z,47.00
2022-11-26T02:01:36.003Z,45.23
2022-11-26T02:04:13.060Z,45.53
2022-11-26T02:06:42.620Z,45.17
2022-11-26T02:09:12.154Z,42.72
2022-11-26T02:11:41.574Z,42.80
2022-11-26T02:14:14.388Z,39.73
2022-11-26T02:17:03.022Z,42.63
2022-11-26T02:19:59.064Z,41.45
2022-11-26T02:22:59.479Z,42.83
2022-11-26T02:25:45.355Z,41.40
2022-11-26T02:28:42.554Z,43.45
2022-11-26T02:31:17.746Z,39.40
2022-11-26T02:33:52.423Z,41.70
2022-11-26T02:36:26.179Z,42.58
2022-11-26T02:38:54.497Z,40.25
2022-11-26T02:41:22.561Z,41.95
2022-11-26T02:43:50.788Z,40.40
2022-11-26T02:46:21.358Z,41.80
2022-11-26T02:48:53.069Z,41.58
2022-11-26T02:51:28.384Z,40.85
2022-11-26T02:54:00.380Z,40.90
2022-11-26T02:56:30.291Z,42.88
2022-11-26T02:58:59.543Z,40.23
2022-11-26T03:01:32.847Z,39.53
2022-11-26T03:04:08.624Z,38.97
2022-11-26T03:06:37.383Z,41.30
2022-11-26T03:09:05.533Z,42.03
2022-11-26T03:11:34.391Z,41.57
2022-11-26T03:14:02.660Z,41.07
2022-11-26T03:16:32.164Z,41.50
2022-11-26T03:19:00.296Z,40.88
2022-11-26T03:21:28.738Z,41.33
2022-11-26T03:23:56.794Z,42.83
2022-11-26T03:26:24.925Z,41.75
2022-11-26T03:28:52.941Z,42.53
2022-11-26T03:31:21.163Z,40.63
2022-11-26T03:33:50.549Z,41.65
2022-11-26T03:36:18.693Z,42.80
2022-11-26T03:38:47.051Z,42.47
2022-11-26T03:41:15.237Z,40.87
2022-11-26T03:43:43.491Z,43.70
2022-11-26T03:46:11.608Z,42.13
2022-11-26T03:48:39.713Z,42.30
2022-11-26T03:51:09.431Z,44.05
2022-11-26T03:53:37.505Z,42.53
2022-11-26T03:56:06.282Z,47.25
2022-11-26T03:58:34.339Z,43.80
2022-11-26T04:01:07.937Z,42.45
2022-11-26T04:03:36.128Z,43.90
2022-11-26T04:06:04.640Z,45.38
2022-11-26T04:08:34.363Z,49.20
2022-11-26T04:11:02.388Z,45.40
2022-11-26T04:13:30.514Z,46.25
2022-11-26T04:15:58.535Z,42.15
2022-11-26T04:18:26.860Z,43.25
2022-11-26T04:20:54.876Z,43.65
2022-11-26T04:23:23.015Z,45.00
2022-11-26T04:25:52.536Z,44.67
2022-11-26T04:28:20.611Z,45.65
2022-11-26T04:30:48.645Z,44.13
2022-11-26T04:33:16.763Z,44.15
2022-11-26T04:35:44.900Z,44.13
2022-11-26T04:38:12.966Z,42.55
2022-11-26T04:40:41.026Z,43.28
2022-11-26T04:43:10.453Z,41.83
2022-11-26T04:45:38.465Z,45.07
2022-11-26T04:48:07.540Z,41.45
2022-11-26T04:50:35.532Z,43.33
2022-11-26T04:53:03.563Z,42.55
2022-11-26T04:55:31.605Z,39.33
2022-11-26T04:57:59.627Z,39.03
2022-11-26T05:00:29.132Z,36.93
2022-11-26T05:02:57.311Z,34.43
2022-11-26T05:05:25.353Z,34.27
2022-11-26T05:07:53.550Z,31.87
2022-11-26T05:10:21.732Z,33.58
2022-11-26T05:12:49.892Z,34.57
2022-11-26T05:15:18.040Z,33.87
2022-11-26T05:17:47.609Z,32.33
2022-11-26T05:20:15.973Z,28.93
2022-11-26T05:22:44.400Z,31.33
2022-11-26T05:25:12.479Z,30.85
2022-11-26T05:27:40.635Z,31.30
2022-11-26T05:30:09.875Z,29.05
2022-11-26T05:32:37.956Z,27.97
2022-11-26T05:35:08.110Z,26.87
2022-11-26T05:37:36.251Z,25.23
2022-11-26T05:40:05.097Z,24.80
2022-11-26T05:42:33.261Z,27.03
2022-11-26T05:45:01.322Z,27.33
2022-11-26T05:47:29.445Z,26.47
2022-11-26T05:49:57.590Z,27.03
2022-11-26T05:52:27.162Z,26.30
2022-11-26T05:54:55.364Z,29.53
2022-11-26T05:57:23.440Z,25.87
2022-11-26T05:59:51.450Z,28.67
2022-11-26T06:02:19.932Z,27.70
2022-11-26T06:04:47.990Z,28.30
2022-11-26T06:07:16.180Z,27.80
2022-11-26T06:09:45.774Z,26.67
2022-11-26T06:12:13.844Z,28.77
2022-11-26T06:14:43.510Z,31.60
2022-11-26T06:17:11.922Z,29.43
2022-11-26T06:19:39.941Z,29.70
2022-11-26T06:22:08.560Z,29.60
2022-11-26T06:24:36.891Z,29.27
2022-11-26T06:27:06.579Z,27.20
2022-11-26T06:29:34.705Z,28.43
2022-11-26T06:32:02.952Z,26.70
2022-11-26T06:34:30.934Z,25.40
2022-11-26T06:36:59.064Z,24.60
2022-11-26T06:39:27.205Z,25.23
2022-11-26T06:41:55.293Z,24.37
2022-11-26T06:44:24.714Z,24.67
2022-11-26T06:46:52.896Z,26.00
2022-11-26T06:49:20.934Z,27.03
2022-11-26T06:51:49.006Z,27.53
2022-11-26T06:54:17.008Z,28.20
2022-11-26T06:56:45.097Z,29.03
2022-11-26T06:59:13.478Z,28.47
2022-11-26T07:01:43.222Z,28.63
2022-11-26T07:04:15.407Z,28.77
2022-11-26T07:06:47.919Z,29.53
2022-11-26T07:09:16.575Z,28.77
2022-11-26T07:11:44.670Z,28.77
2022-11-26T07:14:12.869Z,26.03
2022-11-26T07:16:42.229Z,27.33
2022-11-26T07:19:14.877Z,25.97
2022-11-26T07:21:43.260Z,25.47
2022-11-26T07:24:11.464Z,26.10
2022-11-26T07:26:39.515Z,24.37
2022-11-26T07:29:07.781Z,24.67
2022-11-26T07:31:36.374Z,25.23
2022-11-26T07:34:05.943Z,25.73
2022-11-26T07:36:34.031Z,26.83
2022-11-26T07:39:04.219Z,26.00
2022-11-26T07:41:32.607Z,25.87
2022-11-26T07:44:00.587Z,25.47
2022-11-26T07:46:28.799Z,26.23
2022-11-26T07:48:57.446Z,26.77
2022-11-26T07:51:28.829Z,24.43
2022-11-26T07:53:58.143Z,26.23
2022-11-26T07:56:27.297Z,24.57
2022-11-26T07:58:55.557Z,24.00
2022-11-26T08:01:27.202Z,24.10
2022-11-26T08:03:55.683Z,25.23
2022-11-26T08:06:26.812Z,23.43
2022-11-26T08:08:54.960Z,26.10
2022-11-26T08:11:24.862Z,25.40
2022-11-26T08:13:55.168Z,27.87
2022-11-26T08:16:23.324Z,26.30
2022-11-26T08:18:54.750Z,27.40
2022-11-26T08:21:23.247Z,27.40
2022-11-26T08:23:53.388Z,26.77
2022-11-26T08:26:27.451Z,26.43
2022-11-26T08:28:59.868Z,26.80
2022-11-26T08:31:28.426Z,26.40
2022-11-26T08:33:58.998Z,26.10
2022-11-26T08:36:27.475Z,25.53
2022-11-26T08:38:57.293Z,25.67
2022-11-26T08:41:25.675Z,24.80
2022-11-26T08:44:09.079Z,24.40
2022-11-26T08:46:38.344Z,24.50
2022-11-26T08:49:07.465Z,24.03
2022-11-26T08:51:35.588Z,25.40
2022-11-26T08:54:05.487Z,26.17
2022-11-26T08:56:34.206Z,26.47
2022-11-26T08:59:02.212Z,26.07
2022-11-26T09:01:33.338Z,25.50
2022-11-26T09:04:03.384Z,23.87
2022-11-26T09:06:33.081Z,24.53
2022-11-26T09:09:14.875Z,24.10
2022-11-26T09:11:47.712Z,24.77
2022-11-26T09:14:17.721Z,26.97
2022-11-26T09:16:46.429Z,25.53
2022-11-26T09:19:15.984Z,25.60
2022-11-26T09:21:44.036Z,24.97
2022-11-26T09:24:12.664Z,25.20
2022-11-26T09:26:41.254Z,24.40
2022-11-26T09:29:13.645Z,23.93
2022-11-26T09:32:00.667Z,24.70
2022-11-26T09:34:30.091Z,24.07
2022-11-26T09:36:58.071Z,23.70
2022-11-26T09:39:26.156Z,26.33
2022-11-26T09:42:01.790Z,25.47
2022-11-26T09:44:56.820Z,26.53
2022-11-26T09:47:28.189Z,24.37
2022-11-26T09:50:05.136Z,22.83
2022-11-26T09:52:40.484Z,24.37
2022-11-26T09:55:16.487Z,24.37
2022-11-26T09:57:49.521Z,24.77
2022-11-26T10:00:24.569Z,24.80
2022-11-26T10:02:56.672Z,24.40
2022-11-26T10:05:37.007Z,25.13
2022-11-26T10:08:16.727Z,24.93
2022-11-26T10:10:53.080Z,24.40
2022-11-26T10:13:29.262Z,24.60
2022-11-26T10:16:08.914Z,22.73
2022-11-26T10:18:46.368Z,22.80
2022-11-26T10:21:27.410Z,21.83
2022-11-26T10:24:15.969Z,21.90
2022-11-26T10:26:44.631Z,21.33
2022-11-26T10:29:22.258Z,22.03
2022-11-26T10:31:57.978Z,20.50
2022-11-26T10:34:37.447Z,20.33
2022-11-26T10:37:07.565Z,20.95
2022-11-26T10:39:39.529Z,21.20
2022-11-26T10:42:16.482Z,21.52
2022-11-26T10:44:44.673Z,21.60
2022-11-26T10:47:28.167Z,21.33
2022-11-26T10:49:59.709Z,22.23
2022-11-26T10:52:30.413Z,23.47
2022-11-26T10:55:24.939Z,23.13
2022-11-26T10:57:56.906Z,22.67
2022-11-26T11:00:32.552Z,22.43
2022-11-26T11:03:04.790Z,24.00
2022-11-26T11:05:34.608Z,22.47
2022-11-26T11:08:03.308Z,22.40
2022-11-26T11:10:31.553Z,21.53
2022-11-26T11:13:15.038Z,20.50
2022-11-26T11:15:43.675Z,21.67
2022-11-26T11:18:20.735Z,21.80
2022-11-26T11:20:57.854Z,21.27
2022-11-26T11:23:52.313Z,20.07
2022-11-26T11:26:21.003Z,21.20
2022-11-26T11:28:51.678Z,20.03
2022-11-26T11:31:22.064Z,21.80
2022-11-26T11:33:52.944Z,20.73
2022-11-26T11:36:28.966Z,21.63
2022-11-26T11:39:00.514Z,19.60
2022-11-26T11:41:33.530Z,21.07
2022-11-26T11:44:06.975Z,20.27
2022-11-26T11:47:01.560Z,20.00
2022-11-26T11:49:45.181Z,19.53
2022-11-26T11:52:26.303Z,20.07
2022-11-26T11:55:02.868Z,23.07
2022-11-26T11:57:52.787Z,22.43
2022-11-26T12:00:38.301Z,23.27
2022-11-26T12:03:22.287Z,22.43
2022-11-26T12:06:09.104Z,23.10
2022-11-26T12:08:48.167Z,21.53
2022-11-26T12:11:45.007Z,22.70
2022-11-26T12:14:18.962Z,21.57
2022-11-26T12:16:50.603Z,22.80
2022-11-26T12:19:28.583Z,24.57
2022-11-26T12:22:04.360Z,24.67
2022-11-26T12:24:40.481Z,21.90
2022-11-26T12:27:16.082Z,25.13
2022-11-26T12:29:48.387Z,24.43
2022-11-26T12:32:20.839Z,26.07
2022-11-26T12:34:52.730Z,23.23
2022-11-26T12:37:28.134Z,26.07
2022-11-26T12:40:01.364Z,23.87
2022-11-26T12:42:37.171Z,25.10
2022-11-26T12:45:18.671Z,23.77
2022-11-26T12:47:54.933Z,23.97
2022-11-26T12:50:35.064Z,23.47
2022-11-26T12:53:15.075Z,24.03
2022-11-26T12:55:46.881Z,22.70
2022-11-26T12:58:19.189Z,24.43
2022-11-26T13:00:50.356Z,24.77
2022-11-26T13:03:22.824Z,26.73
2022-11-26T13:06:03.413Z,23.87
2022-11-26T13:08:47.870Z,26.37
2022-11-26T13:11:26.318Z,25.37
2022-11-26T13:13:59.952Z,25.00
2022-11-26T13:16:35.927Z,27.50
2022-11-26T13:19:09.172Z,24.93
2022-11-26T13:21:53.007Z,24.60
2022-11-26T13:24:38.308Z,22.43
2022-11-26T13:27:35.531Z,22.67
2022-11-26T13:30:16.566Z,22.43
2022-11-26T13:33:31.224Z,22.47
2022-11-26T13:36:32.376Z,22.07
2022-11-26T13:39:12.482Z,23.37
2022-11-26T13:42:04.108Z,24.83
2022-11-26T13:45:02.933Z,21.37
2022-11-26T13:47:35.487Z,21.77
2022-11-26T13:50:11.212Z,22.23
2022-11-26T13:52:44.178Z,23.80
2022-11-26T13:55:17.998Z,23.33
2022-11-26T13:57:52.198Z,22.60
2022-11-26T14:00:26.993Z,22.60
2022-11-26T14:02:57.212Z,23.67
2022-11-26T14:05:46.675Z,22.13
2022-11-26T14:08:35.322Z,21.97
2022-11-26T14:11:05.144Z,22.23
2022-11-26T14:13:34.743Z,21.23
2022-11-26T14:16:06.459Z,18.77
2022-11-26T14:19:03.009Z,22.33
2022-11-26T14:21:31.711Z,22.63
2022-11-26T14:24:02.196Z,21.63
2022-11-26T14:26:35.049Z,23.50
2022-11-26T14:29:13.202Z,22.27
2022-11-26T14:31:48.522Z,21.23
2022-11-26T14:34:22.666Z,22.00
2022-11-26T14:36:54.340Z,21.10
2022-11-26T14:39:22.735Z,19.53
2022-11-26T14:42:00.367Z,23.30
2022-11-26T14:44:34.247Z,22.57
2022-11-26T14:47:10.984Z,22.43
2022-11-26T14:49:41.054Z,26.27
2022-11-26T14:52:19.041Z,24.07
2022-11-26T14:54:50.562Z,23.87
2022-11-26T14:57:23.046Z,22.97
2022-11-26T15:00:00.073Z,23.73
2022-11-26T15:02:30.243Z,22.50
2022-11-26T15:05:00.231Z,24.40
2022-11-26T15:07:30.135Z,21.50
2022-11-26T15:10:03.313Z,24.97
2022-11-26T15:12:31.628Z,24.60
2022-11-26T15:15:02.879Z,22.20
2022-11-26T15:17:33.548Z,24.10
2022-11-26T15:20:07.520Z,23.93
2022-11-26T15:22:39.630Z,21.50
2022-11-26T15:25:17.424Z,22.47
2022-11-26T15:27:59.177Z,21.53
2022-11-26T15:30:30.891Z,19.73
2022-11-26T15:33:01.679Z,24.33
2022-11-26T15:35:30.847Z,22.20
2022-11-26T15:37:59.388Z,23.57
2022-11-26T15:40:34.239Z,22.63
2022-11-26T15:43:05.183Z,22.37
2022-11-26T15:45:38.783Z,22.87
2022-11-26T15:48:27.163Z,22.80
2022-11-26T15:51:01.458Z,17.73
2022-11-26T15:53:33.449Z,20.37
2022-11-26T15:56:02.639Z,20.47
2022-11-26T15:58:35.093Z,21.47
2022-11-26T16:01:13.758Z,20.57
2022-11-26T16:03:45.465Z,22.07
2022-11-26T16:06:31.209Z,24.87
2022-11-26T16:09:07.916Z,21.00
2022-11-26T16:11:37.797Z,24.53
2022-11-26T16:14:29.763Z,21.70
2022-11-26T16:17:06.528Z,23.33
2022-11-26T16:19:37.621Z,23.93
2022-11-26T16:22:07.585Z,21.83
2022-11-26T16:24:39.046Z,21.40
2022-11-26T16:27:24.804Z,22.77
2022-11-26T16:29:52.903Z,18.77
2022-11-26T16:32:22.812Z,19.70
2022-11-26T16:34:51.183Z,23.53
2022-11-26T16:37:22.113Z,21.77
2022-11-26T16:39:51.702Z,22.17
2022-11-26T16:42:22.210Z,20.37
2022-11-26T16:44:50.809Z,18.07
2022-11-26T16:47:24.215Z,19.23
2022-11-26T16:49:52.815Z,20.67
2022-11-26T16:52:21.668Z,19.23
2022-11-26T16:54:50.157Z,19.10
2022-11-26T16:57:20.704Z,18.20
2022-11-26T16:59:52.836Z,19.67
2022-11-26T17:02:24.293Z,19.97
2022-11-26T17:04:52.556Z,20.43
2022-11-26T17:07:25.169Z,20.77
2022-11-26T17:09:54.535Z,19.87
2022-11-26T17:12:27.665Z,20.87
2022-11-26T17:14:55.773Z,22.30
2022-11-26T17:17:29.484Z,20.43
2022-11-26T17:19:57.987Z,18.73
2022-11-26T17:22:26.358Z,18.97
2022-11-26T17:24:54.533Z,20.17
2022-11-26T17:27:23.518Z,19.80
2022-11-26T17:29:52.796Z,19.10
2022-11-26T17:32:21.097Z,20.63
2022-11-26T17:34:50.591Z,19.73
2022-11-26T17:37:21.331Z,18.43
2022-11-26T17:39:49.528Z,18.90
2022-11-26T17:42:19.819Z,18.40
2022-11-26T17:44:48.290Z,18.03
2022-11-26T17:47:18.441Z,16.30
2022-11-26T17:49:47.287Z,17.53
2022-11-26T17:52:17.345Z,15.40
2022-11-26T17:54:46.237Z,16.77
2022-11-26T17:57:15.735Z,15.73
2022-11-26T17:59:44.610Z,17.83
2022-11-26T18:02:13.235Z,16.50
2022-11-26T18:04:41.629Z,15.80
2022-11-26T18:07:14.113Z,20.33
2022-11-26T18:09:43.664Z,16.97
2022-11-26T18:12:23.167Z,16.20
2022-11-26T18:14:53.107Z,16.70
2022-11-26T18:17:21.614Z,17.70
2022-11-26T18:19:50.191Z,17.80
2022-11-26T18:22:20.396Z,16.63
2022-11-26T18:24:57.008Z,16.53
2022-11-26T18:27:28.692Z,16.17
2022-11-26T18:29:56.925Z,17.57
2022-11-26T18:32:25.019Z,18.10
2022-11-26T18:34:54.018Z,17.77
2022-11-26T18:37:24.672Z,17.87
2022-11-26T18:39:54.808Z,17.87
2022-11-26T18:42:36.722Z,19.13
2022-11-26T18:45:07.321Z,17.60
2022-11-26T18:47:35.380Z,18.23
2022-11-26T18:50:06.509Z,17.67
2022-11-26T18:52:34.892Z,18.10
2022-11-26T18:55:08.168Z,17.27
2022-11-26T18:57:36.676Z,17.37
2022-11-26T19:00:05.930Z,16.33
2022-11-26T19:02:37.429Z,16.07
2022-11-26T19:05:06.511Z,18.33
2022-11-26T19:07:34.979Z,16.97
2022-11-26T19:10:06.133Z,17.17
2022-11-26T19:12:36.214Z,17.10
2022-11-26T19:15:04.946Z,17.37
2022-11-26T19:17:33.139Z,17.47
2022-11-26T19:20:01.106Z,18.10
2022-11-26T19:22:29.305Z,16.73
2022-11-26T19:24:57.447Z,17.17
2022-11-26T19:27:28.212Z,17.80
2022-11-26T19:29:57.990Z,17.93
2022-11-26T19:32:26.348Z,17.80
2022-11-26T19:34:55.386Z,18.43
2022-11-26T19:37:23.714Z,17.00
2022-11-26T19:39:54.399Z,19.60
2022-11-26T19:42:22.551Z,19.43
2022-11-26T19:44:52.193Z,18.10
2022-11-26T19:47:23.381Z,20.60
2022-11-26T19:49:51.657Z,21.03
2022-11-26T19:52:19.742Z,21.40
2022-11-26T19:54:48.067Z,21.10
2022-11-26T19:57:18.288Z,20.53
2022-11-26T19:59:46.526Z,21.43
2022-11-26T20:02:16.027Z,21.03
2022-11-26T20:04:49.903Z,20.33
2022-11-26T20:07:19.012Z,21.90
2022-11-26T20:09:47.267Z,20.10
2022-11-26T20:12:15.362Z,20.60
2022-11-26T20:14:44.567Z,21.20
2022-11-26T20:17:12.704Z,21.23
2022-11-26T20:19:44.471Z,21.40
2022-11-26T20:22:20.244Z,20.23
2022-11-26T20:24:48.366Z,20.27
2022-11-26T20:27:16.447Z,21.60
2022-11-26T20:29:46.536Z,20.73
2022-11-26T20:32:15.951Z,21.70
2022-11-26T20:34:47.324Z,21.50
2022-11-26T20:37:15.627Z,22.87
2022-11-26T20:39:44.712Z,24.43
2022-11-26T20:42:15.498Z,24.63
2022-11-26T20:44:58.973Z,24.53
2022-11-26T20:47:33.930Z,25.67
2022-11-26T20:50:10.509Z,23.80
2022-11-26T20:52:38.801Z,26.13
2022-11-26T20:55:09.201Z,25.50
